sensor_id;sensor_type;location;lat;lon;timestamp;pressure;altitude;pressure_sealevel;temperature;humidity
33161;BME280;19522;45.656;11.302;2022-10-16T00:01:10;98764.47;;;16.42;89.41
33161;BME280;19522;45.656;11.302;2022-10-16T00:03:37;98719.94;;;16.15;88.56
33161;BME280;19522;45.656;11.302;2022-10-16T00:06:03;98771.47;;;16.38;89.33
33161;BME280;19522;45.656;11.302;2022-10-16T00:08:30;98743.34;;;16.11;90.43
33161;BME280;19522;45.656;11.302;2022-10-16T00:11:07;98767.56;;;16.20;91.51
33161;BME280;19522;45.656;11.302;2022-10-16T00:13:34;98767.13;;;16.17;91.40
33161;BME280;19522;45.656;11.302;2022-10-16T00:16:01;98774.66;;;16.35;90.69
33161;BME280;19522;45.656;11.302;2022-10-16T00:18:27;98724.56;;;16.14;90.32
33161;BME280;19522;45.656;11.302;2022-10-16T00:20:53;98753.88;;;16.52;89.03
33161;BME280;19522;45.656;11.302;2022-10-16T00:23:19;98707.84;;;16.29;88.26
33161;BME280;19522;45.656;11.302;2022-10-16T00:25:54;98727.47;;;16.26;89.11
33161;BME280;19522;45.656;11.302;2022-10-16T00:28:21;98754.66;;;16.28;90.17
33161;BME280;19522;45.656;11.302;2022-10-16T00:30:46;98746.34;;;16.02;91.15
33161;BME280;19522;45.656;11.302;2022-10-16T00:33:11;98771.94;;;16.22;91.26
33161;BME280;19522;45.656;11.302;2022-10-16T00:35:37;98742.94;;;16.07;91.25
33161;BME280;19522;45.656;11.302;2022-10-16T00:38:02;98705.53;;;15.87;90.84
33161;BME280;19522;45.656;11.302;2022-10-16T00:40:28;98747.53;;;16.13;90.97
33161;BME280;19522;45.656;11.302;2022-10-16T00:42:53;98711.00;;;15.81;91.49
33161;BME280;19522;45.656;11.302;2022-10-16T00:45:19;98728.66;;;15.98;91.02
33161;BME280;19522;45.656;11.302;2022-10-16T00:47:45;98769.56;;;16.39;90.44
33161;BME280;19522;45.656;11.302;2022-10-16T00:52:47;98787.34;;;16.68;87.91
33161;BME280;19522;45.656;11.302;2022-10-16T00:55:13;98768.50;;;16.40;88.65
33161;BME280;19522;45.656;11.302;2022-10-16T00:57:40;98757.44;;;16.14;89.65
33161;BME280;19522;45.656;11.302;2022-10-16T01:00:10;98764.81;;;16.20;89.82
33161;BME280;19522;45.656;11.302;2022-10-16T01:02:36;98720.25;;;15.93;90.03
33161;BME280;19522;45.656;11.302;2022-10-16T01:05:02;98755.38;;;16.10;90.35
33161;BME280;19522;45.656;11.302;2022-10-16T01:10:45;98777.22;;;16.30;90.79
33161;BME280;19522;45.656;11.302;2022-10-16T01:13:35;98769.59;;;16.32;90.41
33161;BME280;19522;45.656;11.302;2022-10-16T01:18:44;98769.59;;;16.32;90.28
33161;BME280;19522;45.656;11.302;2022-10-16T01:21:17;98778.47;;;16.27;90.43
33161;BME280;19522;45.656;11.302;2022-10-16T01:27:24;98776.34;;;16.29;90.26
33161;BME280;19522;45.656;11.302;2022-10-16T01:29:54;98783.94;;;16.34;90.06
33161;BME280;19522;45.656;11.302;2022-10-16T01:32:38;98751.72;;;16.23;89.60
33161;BME280;19522;45.656;11.302;2022-10-16T01:38:03;98761.13;;;16.40;88.99
33161;BME280;19522;45.656;11.302;2022-10-16T01:40:29;98773.22;;;16.64;88.32
33161;BME280;19522;45.656;11.302;2022-10-16T01:43:06;98758.94;;;16.56;87.35
33161;BME280;19522;45.656;11.302;2022-10-16T01:45:34;98774.03;;;16.33;88.95
33161;BME280;19522;45.656;11.302;2022-10-16T01:48:02;98778.72;;;16.19;90.24
33161;BME280;19522;45.656;11.302;2022-10-16T01:50:33;98747.22;;;15.96;90.87
33161;BME280;19522;45.656;11.302;2022-10-16T01:53:02;98778.34;;;16.09;91.33
33161;BME280;19522;45.656;11.302;2022-10-16T01:55:38;98751.84;;;15.89;91.80
33161;BME280;19522;45.656;11.302;2022-10-16T01:58:10;98745.31;;;15.83;91.77
33161;BME280;19522;45.656;11.302;2022-10-16T02:00:38;98739.00;;;15.76;91.41
33161;BME280;19522;45.656;11.302;2022-10-16T02:03:05;98783.00;;;16.01;91.83
33161;BME280;19522;45.656;11.302;2022-10-16T02:05:44;98784.91;;;16.01;91.87
33161;BME280;19522;45.656;11.302;2022-10-16T02:08:10;98805.13;;;16.00;92.03
33161;BME280;19522;45.656;11.302;2022-10-16T02:10:37;98794.19;;;16.00;92.08
33161;BME280;19522;45.656;11.302;2022-10-16T02:13:13;98793.94;;;16.08;90.98
33161;BME280;19522;45.656;11.302;2022-10-16T02:15:40;98713.19;;;15.45;91.43
33161;BME280;19522;45.656;11.302;2022-10-16T02:18:07;98792.47;;;16.06;91.29
33161;BME280;19522;45.656;11.302;2022-10-16T02:20:38;98769.13;;;15.89;90.73
33161;BME280;19522;45.656;11.302;2022-10-16T02:23:07;98804.69;;;16.03;91.13
33161;BME280;19522;45.656;11.302;2022-10-16T02:25:41;98752.06;;;15.74;91.04
33161;BME280;19522;45.656;11.302;2022-10-16T02:30:49;98769.13;;;15.83;91.18
33161;BME280;19522;45.656;11.302;2022-10-16T02:33:17;98806.81;;;16.01;91.46
33161;BME280;19522;45.656;11.302;2022-10-16T02:35:46;98797.34;;;15.90;91.63
33161;BME280;19522;45.656;11.302;2022-10-16T02:38:14;98817.97;;;15.99;91.76
33161;BME280;19522;45.656;11.302;2022-10-16T02:40:41;98814.41;;;15.92;91.50
33161;BME280;19522;45.656;11.302;2022-10-16T02:43:08;98800.50;;;15.94;91.07
33161;BME280;19522;45.656;11.302;2022-10-16T02:45:35;98766.63;;;15.54;91.13
33161;BME280;19522;45.656;11.302;2022-10-16T02:48:00;98819.50;;;15.88;91.75
33161;BME280;19522;45.656;11.302;2022-10-16T02:50:26;98807.06;;;15.86;91.52
33161;BME280;19522;45.656;11.302;2022-10-16T02:52:51;98818.44;;;15.96;91.21
33161;BME280;19522;45.656;11.302;2022-10-16T02:55:17;98807.41;;;16.16;89.47
33161;BME280;19522;45.656;11.302;2022-10-16T02:57:43;98799.19;;;16.16;88.54
33161;BME280;19522;45.656;11.302;2022-10-16T03:00:14;98826.59;;;16.10;89.56
33161;BME280;19522;45.656;11.302;2022-10-16T03:02:40;98828.09;;;16.06;90.45
33161;BME280;19522;45.656;11.302;2022-10-16T03:05:06;98805.94;;;16.07;89.92
33161;BME280;19522;45.656;11.302;2022-10-16T03:07:31;98811.22;;;16.02;90.52
33161;BME280;19522;45.656;11.302;2022-10-16T03:09:57;98761.56;;;15.65;90.92
33161;BME280;19522;45.656;11.302;2022-10-16T03:12:26;98826.66;;;15.96;91.30
33161;BME280;19522;45.656;11.302;2022-10-16T03:14:52;98781.78;;;15.70;91.04
33161;BME280;19522;45.656;11.302;2022-10-16T03:17:17;98737.38;;;15.55;90.55
33161;BME280;19522;45.656;11.302;2022-10-16T03:19:43;98748.53;;;15.53;90.81
33161;BME280;19522;45.656;11.302;2022-10-16T03:22:09;98769.19;;;15.49;91.51
33161;BME280;19522;45.656;11.302;2022-10-16T03:24:34;98679.38;;;14.86;92.69
33161;BME280;19522;45.656;11.302;2022-10-16T03:27:00;98786.25;;;15.24;93.65
33161;BME280;19522;45.656;11.302;2022-10-16T03:29:26;98824.34;;;15.53;94.91
33161;BME280;19522;45.656;11.302;2022-10-16T03:31:52;98726.47;;;15.01;94.66
33161;BME280;19522;45.656;11.302;2022-10-16T03:34:18;98820.75;;;15.66;94.16
33161;BME280;19522;45.656;11.302;2022-10-16T03:36:44;98819.28;;;15.70;93.65
33161;BME280;19522;45.656;11.302;2022-10-16T03:39:09;98768.59;;;15.27;93.61
33161;BME280;19522;45.656;11.302;2022-10-16T03:41:35;98824.97;;;15.62;93.65
33161;BME280;19522;45.656;11.302;2022-10-16T03:44:00;98785.41;;;15.31;94.00
33161;BME280;19522;45.656;11.302;2022-10-16T03:46:26;98833.38;;;15.60;94.15
33161;BME280;19522;45.656;11.302;2022-10-16T03:48:52;98570.84;;;14.19;92.52
33161;BME280;19522;45.656;11.302;2022-10-16T03:51:17;98766.88;;;15.39;92.81
33161;BME280;19522;45.656;11.302;2022-10-16T03:53:43;98813.59;;;15.71;92.78
33161;BME280;19522;45.656;11.302;2022-10-16T03:56:08;98635.63;;;14.79;90.61
33161;BME280;19522;45.656;11.302;2022-10-16T03:58:34;98824.94;;;15.95;90.50
33161;BME280;19522;45.656;11.302;2022-10-16T04:00:59;98819.91;;;15.85;91.11
33161;BME280;19522;45.656;11.302;2022-10-16T04:03:25;98721.88;;;15.02;92.66
33161;BME280;19522;45.656;11.302;2022-10-16T04:05:50;98551.09;;;13.97;93.05
33161;BME280;19522;45.656;11.302;2022-10-16T04:08:16;98818.44;;;15.63;92.71
33161;BME280;19522;45.656;11.302;2022-10-16T04:10:42;98753.41;;;15.24;92.53
33161;BME280;19522;45.656;11.302;2022-10-16T04:13:08;98725.03;;;15.19;91.95
33161;BME280;19522;45.656;11.302;2022-10-16T04:15:34;98782.22;;;15.54;91.40
33161;BME280;19522;45.656;11.302;2022-10-16T04:18:00;98811.94;;;15.50;92.38
33161;BME280;19522;45.656;11.302;2022-10-16T04:20:26;98816.13;;;15.60;92.62
33161;BME280;19522;45.656;11.302;2022-10-16T04:22:51;98831.72;;;15.86;91.46
33161;BME280;19522;45.656;11.302;2022-10-16T04:25:17;98717.69;;;14.99;91.84
33161;BME280;19522;45.656;11.302;2022-10-16T04:27:42;98854.66;;;15.65;92.64
33161;BME280;19522;45.656;11.302;2022-10-16T04:30:08;98814.03;;;15.28;92.95
33161;BME280;19522;45.656;11.302;2022-10-16T04:32:34;98831.06;;;15.37;93.37
33161;BME280;19522;45.656;11.302;2022-10-16T04:35:00;98855.94;;;15.42;94.28
33161;BME280;19522;45.656;11.302;2022-10-16T04:37:26;98854.84;;;15.50;93.69
33161;BME280;19522;45.656;11.302;2022-10-16T04:39:52;98854.41;;;15.80;91.61
33161;BME280;19522;45.656;11.302;2022-10-16T04:42:19;98854.66;;;15.92;90.44
33161;BME280;19522;45.656;11.302;2022-10-16T04:44:44;98857.81;;;15.88;90.05
33161;BME280;19522;45.656;11.302;2022-10-16T04:47:10;98765.41;;;15.10;91.46
33161;BME280;19522;45.656;11.302;2022-10-16T04:49:35;98800.97;;;15.17;92.40
33161;BME280;19522;45.656;11.302;2022-10-16T04:52:01;98829.16;;;15.17;93.87
33161;BME280;19522;45.656;11.302;2022-10-16T04:54:26;98863.06;;;15.50;93.81
33161;BME280;19522;45.656;11.302;2022-10-16T04:56:52;98785.81;;;14.94;93.99
33161;BME280;19522;45.656;11.302;2022-10-16T04:59:19;98736.31;;;14.55;94.36
33161;BME280;19522;45.656;11.302;2022-10-16T05:01:45;98867.69;;;15.36;94.41
33161;BME280;19522;45.656;11.302;2022-10-16T05:04:11;98865.38;;;15.46;94.48
33161;BME280;19522;45.656;11.302;2022-10-16T05:06:37;98866.00;;;15.68;92.36
33161;BME280;19522;45.656;11.302;2022-10-16T05:09:04;98867.91;;;15.74;91.70
33161;BME280;19522;45.656;11.302;2022-10-16T05:11:30;98855.94;;;15.42;92.46
33161;BME280;19522;45.656;11.302;2022-10-16T05:13:56;98852.13;;;15.30;93.66
33161;BME280;19522;45.656;11.302;2022-10-16T05:16:21;98864.13;;;15.42;94.13
33161;BME280;19522;45.656;11.302;2022-10-16T05:18:47;98871.69;;;15.53;93.32
33161;BME280;19522;45.656;11.302;2022-10-16T05:21:12;98791.94;;;15.03;92.78
33161;BME280;19522;45.656;11.302;2022-10-16T05:23:38;98877.19;;;15.47;93.50
33161;BME280;19522;45.656;11.302;2022-10-16T05:26:04;98878.63;;;15.36;94.02
33161;BME280;19522;45.656;11.302;2022-10-16T05:28:29;98827.03;;;15.06;94.23
33161;BME280;19522;45.656;11.302;2022-10-16T05:30:55;98785.16;;;14.78;94.30
33161;BME280;19522;45.656;11.302;2022-10-16T05:33:24;98782.00;;;14.68;94.58
33161;BME280;19522;45.656;11.302;2022-10-16T05:35:50;98874.44;;;15.33;94.17
33161;BME280;19522;45.656;11.302;2022-10-16T05:38:16;98868.97;;;15.60;92.46
33161;BME280;19522;45.656;11.302;2022-10-16T05:40:42;98869.81;;;15.61;91.12
33161;BME280;19522;45.656;11.302;2022-10-16T05:43:08;98782.47;;;15.05;91.07
33161;BME280;19522;45.656;11.302;2022-10-16T05:45:34;98883.06;;;15.64;91.35
33161;BME280;19522;45.656;11.302;2022-10-16T05:48:00;98817.38;;;15.10;92.42
33161;BME280;19522;45.656;11.302;2022-10-16T05:50:26;98883.06;;;15.43;93.00
33161;BME280;19522;45.656;11.302;2022-10-16T05:52:51;98890.66;;;15.41;93.74
33161;BME280;19522;45.656;11.302;2022-10-16T05:55:17;98829.59;;;15.14;92.86
33161;BME280;19522;45.656;11.302;2022-10-16T05:57:43;98880.75;;;15.20;93.40
33161;BME280;19522;45.656;11.302;2022-10-16T06:00:09;98843.41;;;14.79;95.45
33161;BME280;19522;45.656;11.302;2022-10-16T06:02:35;98897.78;;;15.16;95.60
33161;BME280;19522;45.656;11.302;2022-10-16T06:05:00;98844.69;;;14.83;95.96
33161;BME280;19522;45.656;11.302;2022-10-16T06:07:26;98869.34;;;15.03;95.44
33161;BME280;19522;45.656;11.302;2022-10-16T06:09:52;98903.25;;;15.22;95.36
33161;BME280;19522;45.656;11.302;2022-10-16T06:12:18;98851.00;;;14.90;95.37
33161;BME280;19522;45.656;11.302;2022-10-16T06:14:45;98915.47;;;15.33;95.06
33161;BME280;19522;45.656;11.302;2022-10-16T06:17:12;98881.34;;;14.95;95.55
33161;BME280;19522;45.656;11.302;2022-10-16T06:19:38;98907.88;;;15.08;95.76
33161;BME280;19522;45.656;11.302;2022-10-16T06:22:04;98927.72;;;15.37;95.38
33161;BME280;19522;45.656;11.302;2022-10-16T06:24:29;98936.34;;;15.41;94.93
33161;BME280;19522;45.656;11.302;2022-10-16T06:26:55;98915.03;;;15.23;94.89
33161;BME280;19522;45.656;11.302;2022-10-16T06:29:20;98903.66;;;15.19;94.91
33161;BME280;19522;45.656;11.302;2022-10-16T06:31:46;98950.44;;;15.38;95.50
33161;BME280;19522;45.656;11.302;2022-10-16T06:34:12;98847.22;;;14.85;95.44
33161;BME280;19522;45.656;11.302;2022-10-16T06:36:39;98946.47;;;15.54;95.21
33161;BME280;19522;45.656;11.302;2022-10-16T06:39:08;98951.94;;;15.61;94.41
33161;BME280;19522;45.656;11.302;2022-10-16T06:41:34;98912.53;;;15.41;94.31
33161;BME280;19522;45.656;11.302;2022-10-16T06:44:00;98952.16;;;15.72;93.62
33161;BME280;19522;45.656;11.302;2022-10-16T06:46:26;98957.63;;;15.72;93.63
33161;BME280;19522;45.656;11.302;2022-10-16T06:48:53;98905.38;;;15.40;93.37
33161;BME280;19522;45.656;11.302;2022-10-16T06:51:20;98931.28;;;15.65;92.71
33161;BME280;19522;45.656;11.302;2022-10-16T06:53:48;98969.06;;;15.89;92.79
33161;BME280;19522;45.656;11.302;2022-10-16T06:56:22;98840.13;;;15.17;91.92
33161;BME280;19522;45.656;11.302;2022-10-16T06:58:48;98976.84;;;15.99;91.70
33161;BME280;19522;45.656;11.302;2022-10-16T07:01:15;98761.84;;;14.76;91.45
33161;BME280;19522;45.656;11.302;2022-10-16T07:03:43;98990.97;;;16.16;90.97
33161;BME280;19522;45.656;11.302;2022-10-16T07:06:10;98804.56;;;15.17;90.34
33161;BME280;19522;45.656;11.302;2022-10-16T07:08:38;98982.75;;;16.30;90.36
33161;BME280;19522;45.656;11.302;2022-10-16T07:11:06;98998.53;;;16.28;90.97
33161;BME280;19522;45.656;11.302;2022-10-16T07:13:40;98947.34;;;15.88;90.92
33161;BME280;19522;45.656;11.302;2022-10-16T07:16:17;98997.06;;;16.05;93.14
33161;BME280;19522;45.656;11.302;2022-10-16T07:18:43;98993.06;;;16.08;92.40
33161;BME280;19522;45.656;11.302;2022-10-16T07:21:13;98997.28;;;16.24;92.02
33161;BME280;19522;45.656;11.302;2022-10-16T07:23:39;98914.03;;;15.57;91.06
33161;BME280;19522;45.656;11.302;2022-10-16T07:26:05;99006.75;;;16.21;91.33
33161;BME280;19522;45.656;11.302;2022-10-16T07:28:32;98868.56;;;15.36;91.26
33161;BME280;19522;45.656;11.302;2022-10-16T07:31:10;98990.31;;;16.28;90.97
33161;BME280;19522;45.656;11.302;2022-10-16T07:33:37;99022.94;;;16.56;90.48
33161;BME280;19522;45.656;11.302;2022-10-16T07:36:04;98890.00;;;15.73;90.45
33161;BME280;19522;45.656;11.302;2022-10-16T07:38:29;99023.34;;;16.73;89.73
33161;BME280;19522;45.656;11.302;2022-10-16T07:40:57;99025.22;;;16.86;88.81
33161;BME280;19522;45.656;11.302;2022-10-16T07:43:23;99029.66;;;16.94;88.49
33161;BME280;19522;45.656;11.302;2022-10-16T07:45:49;98834.44;;;15.72;88.08
33161;BME280;19522;45.656;11.302;2022-10-16T07:48:16;99033.19;;;17.15;87.09
33161;BME280;19522;45.656;11.302;2022-10-16T07:50:42;98859.44;;;16.16;85.96
33161;BME280;19522;45.656;11.302;2022-10-16T07:53:11;99040.13;;;17.17;84.77
33161;BME280;19522;45.656;11.302;2022-10-16T07:55:37;99044.72;;;17.23;85.04
33161;BME280;19522;45.656;11.302;2022-10-16T07:58:04;98811.03;;;15.97;84.69
33161;BME280;19522;45.656;11.302;2022-10-16T08:00:30;99024.09;;;17.14;84.42
33161;BME280;19522;45.656;11.302;2022-10-16T08:02:57;98891.63;;;16.41;84.02
33161;BME280;19522;45.656;11.302;2022-10-16T08:05:30;99036.53;;;17.62;83.65
33161;BME280;19522;45.656;11.302;2022-10-16T08:07:56;98987.44;;;17.02;81.57
33161;BME280;19522;45.656;11.302;2022-10-16T08:10:24;99044.97;;;17.22;82.55
33161;BME280;19522;45.656;11.302;2022-10-16T08:12:50;99047.84;;;17.40;82.32
33161;BME280;19522;45.656;11.302;2022-10-16T08:15:16;98948.56;;;17.05;79.52
33161;BME280;19522;45.656;11.302;2022-10-16T08:17:42;98784.72;;;15.89;79.79
33161;BME280;19522;45.656;11.302;2022-10-16T08:20:08;99048.88;;;17.46;79.57
33161;BME280;19522;45.656;11.302;2022-10-16T08:22:34;99051.56;;;17.59;79.69
33161;BME280;19522;45.656;11.302;2022-10-16T08:24:59;99068.22;;;17.58;78.92
33161;BME280;19522;45.656;11.302;2022-10-16T08:27:25;99052.63;;;17.58;80.01
33161;BME280;19522;45.656;11.302;2022-10-16T08:29:51;98913.25;;;16.70;79.17
33161;BME280;19522;45.656;11.302;2022-10-16T08:32:16;99050.44;;;17.67;79.84
33161;BME280;19522;45.656;11.302;2022-10-16T08:34:42;99053.06;;;18.19;76.82
33161;BME280;19522;45.656;11.302;2022-10-16T08:37:07;99046.97;;;18.17;77.40
33161;BME280;19522;45.656;11.302;2022-10-16T08:39:38;99066.97;;;18.31;77.53
33161;BME280;19522;45.656;11.302;2022-10-16T08:48:19;98969.84;;;18.56;75.59
33161;BME280;19522;45.656;11.302;2022-10-16T08:50:14;99050.78;;;19.60;71.16
33161;BME280;19522;45.656;11.302;2022-10-16T08:52:44;99043.38;;;19.72;69.20
33161;BME280;19522;45.656;11.302;2022-10-16T08:55:32;99037.09;;;20.14;68.60
33161;BME280;19522;45.656;11.302;2022-10-16T08:57:59;99004.09;;;20.07;66.35
33161;BME280;19522;45.656;11.302;2022-10-16T09:00:26;99033.63;;;20.31;65.66
33161;BME280;19522;45.656;11.302;2022-10-16T09:03:06;99041.41;;;20.22;64.84
33161;BME280;19522;45.656;11.302;2022-10-16T09:05:54;99040.41;;;20.16;65.93
33161;BME280;19522;45.656;11.302;2022-10-16T09:11:40;99037.59;;;20.70;63.37
33161;BME280;19522;45.656;11.302;2022-10-16T09:20:30;99041.81;;;20.97;62.14
33161;BME280;19522;45.656;11.302;2022-10-16T09:25:50;99015.41;;;20.53;63.97
33161;BME280;19522;45.656;11.302;2022-10-16T09:28:18;99048.88;;;20.57;63.92
33161;BME280;19522;45.656;11.302;2022-10-16T09:30:44;99054.25;;;21.11;63.84
33161;BME280;19522;45.656;11.302;2022-10-16T09:33:11;99055.72;;;21.02;61.80
33161;BME280;19522;45.656;11.302;2022-10-16T09:35:41;99051.25;;;21.13;62.25
33161;BME280;19522;45.656;11.302;2022-10-16T09:38:08;99043.97;;;21.47;60.19
33161;BME280;19522;45.656;11.302;2022-10-16T09:40:38;98864.69;;;20.12;60.60
33161;BME280;19522;45.656;11.302;2022-10-16T09:43:23;98992.03;;;20.80;61.32
33161;BME280;19522;45.656;11.302;2022-10-16T09:45:58;99049.56;;;21.24;61.69
33161;BME280;19522;45.656;11.302;2022-10-16T09:48:27;99043.50;;;20.98;63.40
33161;BME280;19522;45.656;11.302;2022-10-16T09:50:58;98985.66;;;20.32;64.72
33161;BME280;19522;45.656;11.302;2022-10-16T09:53:39;99049.69;;;20.69;65.99
33161;BME280;19522;45.656;11.302;2022-10-16T09:56:05;99049.25;;;20.84;65.95
33161;BME280;19522;45.656;11.302;2022-10-16T09:58:32;99040.59;;;20.93;64.64
33161;BME280;19522;45.656;11.302;2022-10-16T10:00:58;99044.66;;;21.14;64.74
33161;BME280;19522;45.656;11.302;2022-10-16T10:03:37;99042.13;;;21.24;62.33
33161;BME280;19522;45.656;11.302;2022-10-16T10:06:27;99045.75;;;21.54;61.64
33161;BME280;19522;45.656;11.302;2022-10-16T10:09:03;98924.34;;;20.77;61.57
33161;BME280;19522;45.656;11.302;2022-10-16T10:11:45;98854.47;;;20.36;61.31
33161;BME280;19522;45.656;11.302;2022-10-16T10:16:49;99033.25;;;21.22;61.50
33161;BME280;19522;45.656;11.302;2022-10-16T10:19:23;99032.59;;;21.32;61.36
33161;BME280;19522;45.656;11.302;2022-10-16T10:21:50;99018.44;;;20.76;62.40
33161;BME280;19522;45.656;11.302;2022-10-16T10:24:18;98995.84;;;20.07;64.26
33161;BME280;19522;45.656;11.302;2022-10-16T10:29:41;99042.66;;;19.65;68.08
33161;BME280;19522;45.656;11.302;2022-10-16T10:32:30;99048.91;;;19.23;70.49
33161;BME280;19522;45.656;11.302;2022-10-16T10:35:22;99037.38;;;19.64;68.71
33161;BME280;19522;45.656;11.302;2022-10-16T10:38:09;99041.41;;;19.80;67.79
33161;BME280;19522;45.656;11.302;2022-10-16T10:44:13;99041.31;;;19.68;68.09
33161;BME280;19522;45.656;11.302;2022-10-16T10:46:50;99053.63;;;19.84;66.84
33161;BME280;19522;45.656;11.302;2022-10-16T10:49:50;99041.22;;;19.93;66.35
33161;BME280;19522;45.656;11.302;2022-10-16T10:57:34;99032.38;;;19.72;69.18
33161;BME280;19522;45.656;11.302;2022-10-16T11:00:23;99043.00;;;19.87;67.93
33161;BME280;19522;45.656;11.302;2022-10-16T11:05:42;99064.84;;;20.01;66.50
33161;BME280;19522;45.656;11.302;2022-10-16T11:11:09;99050.25;;;20.00;67.05
33161;BME280;19522;45.656;11.302;2022-10-16T11:14:01;99050.69;;;19.67;66.81
33161;BME280;19522;45.656;11.302;2022-10-16T11:16:36;99047.91;;;19.36;67.97
33161;BME280;19522;45.656;11.302;2022-10-16T11:19:37;99059.03;;;19.60;68.27
33161;BME280;19522;45.656;11.302;2022-10-16T11:24:50;99055.09;;;19.86;67.48
33161;BME280;19522;45.656;11.302;2022-10-16T11:27:20;98815.13;;;18.12;67.33
33161;BME280;19522;45.656;11.302;2022-10-16T11:30:30;99045.97;;;19.55;67.24
33161;BME280;19522;45.656;11.302;2022-10-16T11:38:57;99032.88;;;19.81;67.02
33161;BME280;19522;45.656;11.302;2022-10-16T11:41:18;99042.91;;;19.94;67.10
33161;BME280;19522;45.656;11.302;2022-10-16T11:46:46;99038.34;;;20.00;66.78
33161;BME280;19522;45.656;11.302;2022-10-16T11:49:19;98815.97;;;18.61;67.14
33161;BME280;19522;45.656;11.302;2022-10-16T11:52:38;99049.53;;;20.05;67.63
33161;BME280;19522;45.656;11.302;2022-10-16T11:55:09;99047.00;;;19.73;67.61
33161;BME280;19522;45.656;11.302;2022-10-16T11:57:42;99043.28;;;19.79;68.26
33161;BME280;19522;45.656;11.302;2022-10-16T12:08:11;98745.84;;;18.21;68.95
33161;BME280;19522;45.656;11.302;2022-10-16T12:10:40;99060.66;;;19.98;68.47
33161;BME280;19522;45.656;11.302;2022-10-16T12:18:42;99045.81;;;19.99;68.76
33161;BME280;19522;45.656;11.302;2022-10-16T12:21:09;98918.16;;;19.44;67.26
33161;BME280;19522;45.656;11.302;2022-10-16T12:23:54;99042.53;;;19.90;67.66
33161;BME280;19522;45.656;11.302;2022-10-16T12:26:28;98805.25;;;18.72;67.80
33161;BME280;19522;45.656;11.302;2022-10-16T12:28:55;99038.41;;;19.81;67.79
33161;BME280;19522;45.656;11.302;2022-10-16T12:31:21;98974.00;;;19.03;69.33
33161;BME280;19522;45.656;11.302;2022-10-16T12:34:00;98980.72;;;18.88;70.07
33161;BME280;19522;45.656;11.302;2022-10-16T12:36:34;99054.31;;;19.49;70.20
33161;BME280;19522;45.656;11.302;2022-10-16T12:39:00;98824.34;;;18.17;70.58
33161;BME280;19522;45.656;11.302;2022-10-16T12:41:31;99045.19;;;19.48;71.21
33161;BME280;19522;45.656;11.302;2022-10-16T12:43:57;98877.41;;;18.36;71.75
33161;BME280;19522;45.656;11.302;2022-10-16T12:49:51;99050.22;;;19.70;71.22
33161;BME280;19522;45.656;11.302;2022-10-16T12:51:54;99006.06;;;19.46;70.72
33161;BME280;19522;45.656;11.302;2022-10-16T12:54:38;98824.50;;;18.04;70.33
33161;BME280;19522;45.656;11.302;2022-10-16T13:00:07;99056.47;;;19.77;69.75
33161;BME280;19522;45.656;11.302;2022-10-16T13:08:35;99062.28;;;19.87;70.06
33161;BME280;19522;45.656;11.302;2022-10-16T13:15:14;99063.41;;;19.49;70.94
33161;BME280;19522;45.656;11.302;2022-10-16T13:17:33;99065.94;;;19.81;70.69
33161;BME280;19522;45.656;11.302;2022-10-16T13:23:19;99067.38;;;19.84;71.17
33161;BME280;19522;45.656;11.302;2022-10-16T13:28:42;99030.28;;;19.56;70.98
33161;BME280;19522;45.656;11.302;2022-10-16T13:31:20;99072.84;;;19.90;71.31
33161;BME280;19522;45.656;11.302;2022-10-16T13:33:49;99069.03;;;19.91;72.12
33161;BME280;19522;45.656;11.302;2022-10-16T13:36:34;99074.91;;;19.95;71.97
33161;BME280;19522;45.656;11.302;2022-10-16T13:39:14;99027.88;;;19.59;72.05
33161;BME280;19522;45.656;11.302;2022-10-16T13:41:40;99075.41;;;20.04;71.50
33161;BME280;19522;45.656;11.302;2022-10-16T13:44:17;99088.06;;;19.74;71.83
33161;BME280;19522;45.656;11.302;2022-10-16T13:46:44;98849.53;;;18.51;72.84
33161;BME280;19522;45.656;11.302;2022-10-16T13:49:16;99081.59;;;20.30;72.01
33161;BME280;19522;45.656;11.302;2022-10-16T13:51:54;99084.94;;;20.32;71.55
33161;BME280;19522;45.656;11.302;2022-10-16T13:54:20;98907.72;;;19.04;69.72
33161;BME280;19522;45.656;11.302;2022-10-16T13:56:46;99079.50;;;20.13;71.30
33161;BME280;19522;45.656;11.302;2022-10-16T13:59:41;99086.09;;;20.12;72.60
33161;BME280;19522;45.656;11.302;2022-10-16T14:04:47;99085.38;;;20.05;74.78
33161;BME280;19522;45.656;11.302;2022-10-16T14:07:20;99085.56;;;19.91;75.67
33161;BME280;19522;45.656;11.302;2022-10-16T14:09:50;99088.84;;;19.63;78.21
33161;BME280;19522;45.656;11.302;2022-10-16T14:12:16;98943.66;;;18.53;79.16
33161;BME280;19522;45.656;11.302;2022-10-16T14:14:44;98990.28;;;19.04;79.16
33161;BME280;19522;45.656;11.302;2022-10-16T14:17:31;99090.38;;;19.77;78.53
33161;BME280;19522;45.656;11.302;2022-10-16T14:19:59;99082.44;;;19.69;79.37
33161;BME280;19522;45.656;11.302;2022-10-16T14:22:39;99088.59;;;19.83;77.76
33161;BME280;19522;45.656;11.302;2022-10-16T14:27:57;99089.72;;;19.64;74.70
33161;BME280;19522;45.656;11.302;2022-10-16T14:30:23;98925.09;;;18.49;73.26
33161;BME280;19522;45.656;11.302;2022-10-16T14:32:56;99089.81;;;19.38;75.22
33161;BME280;19522;45.656;11.302;2022-10-16T14:35:27;99090.06;;;19.37;75.44
33161;BME280;19522;45.656;11.302;2022-10-16T14:37:54;99094.94;;;19.35;75.74
33161;BME280;19522;45.656;11.302;2022-10-16T14:40:24;99082.94;;;19.48;75.44
33161;BME280;19522;45.656;11.302;2022-10-16T14:42:50;99020.06;;;18.89;75.71
33161;BME280;19522;45.656;11.302;2022-10-16T14:45:21;98990.66;;;18.71;76.70
33161;BME280;19522;45.656;11.302;2022-10-16T14:47:54;99093.28;;;19.34;77.37
33161;BME280;19522;45.656;11.302;2022-10-16T14:50:21;99096.25;;;19.32;77.88